Time;durP1;ratioP1;P1;durP2;ratioP2;P2;SDS_P1;SDS_P2;PMS_P1;PMS_P2;Temp;Humidity;BMP_temperature;BMP_pressure;BME280_temperature;BME280_humidity;BME280_pressure;Samples;Min_cycle;Max_cycle;Signal;HPM_P1;HPM_P2
2022/10/10 00:02:18;;;;;;;;;;;;;;;19.28;64.13;101512.45;2394805;73;51412;-76
2022/10/10 00:05:20;;;;;;;;;;;;;;;19.28;64.13;101503.06;2362856;74;51416;-76
2022/10/10 00:08:21;;;;;;;;;;;;;;;19.28;64.03;101507.08;2327924;74;49498;-76
2022/10/10 00:11:23;;;;;;;;;;;;;;;19.29;64.12;101502.55;2385054;74;50386;-76
2022/10/10 00:14:25;;;;;;;;;;;;;;;19.28;63.99;101507.59;2384979;74;51526;-77
2022/10/10 00:17:26;;;;;;;;;;;;;;;19.28;64.06;101503.06;2385274;74;50780;-77
2022/10/10 00:20:28;;;;;;;;;;;;;;;19.27;64.11;101500.56;2328134;74;49517;-77
2022/10/10 00:23:29;;;;;;;;;;;;;;;19.29;64.06;101495.36;2354554;74;50323;-76
2022/10/10 00:26:31;;;;;;;;;;;;;;;19.27;64.01;101498.70;2385305;73;50800;-77
2022/10/10 00:29:33;;;;;;;;;;;;;;;19.26;64.16;101492.98;2413537;73;51569;-77
2022/10/10 00:32:35;;;;;;;;;;;;;;;19.27;64.22;101488.48;2381745;74;52482;-77
2022/10/10 00:35:36;;;;;;;;;;;;;;;19.26;64.20;101488.13;2384955;74;50783;-76
2022/10/10 00:38:38;;;;;;;;;;;;;;;19.25;64.20;101480.59;2385199;74;50735;-77
2022/10/10 00:41:40;;;;;;;;;;;;;;;19.26;64.18;101475.55;2414345;73;51566;-76
2022/10/10 00:44:41;;;;;;;;;;;;;;;19.25;64.18;101472.54;2396041;73;52523;-76
2022/10/10 00:47:43;;;;;;;;;;;;;;;19.24;64.34;101473.56;2396174;73;50683;-77
2022/10/10 00:50:49;;;;;;;;;;;;;;;19.25;64.30;101467.17;2416282;73;51516;-77
2022/10/10 00:53:52;;;;;;;;;;;;;;;19.23;64.37;101457.11;2424797;73;50466;-77
2022/10/10 00:56:57;;;;;;;;;;;;;;;19.23;64.29;101457.11;2437857;72;51054;-76
2022/10/10 00:59:59;;;;;;;;;;;;;;;19.24;64.35;101458.80;2427727;73;50653;-77
2022/10/10 01:03:00;;;;;;;;;;;;;;;19.25;64.26;101458.30;2427755;72;50716;-77
2022/10/10 01:06:02;;;;;;;;;;;;;;;19.24;64.14;101457.46;2427499;73;51540;-76
2022/10/10 01:09:04;;;;;;;;;;;;;;;19.25;64.14;101456.44;2438088;72;51033;-76
2022/10/10 01:12:13;;;;;;;;;;;;;;;19.26;64.10;101463.98;2427657;73;51493;-76
2022/10/10 01:15:16;;;;;;;;;;;;;;;19.26;64.19;101453.25;2427525;72;50766;-76
2022/10/10 01:18:20;;;;;;;;;;;;;;;19.25;64.21;101448.91;2427534;72;51594;-76
2022/10/10 01:21:26;;;;;;;;;;;;;;;19.25;64.05;101443.53;2405987;73;52681;-76
2022/10/10 01:24:32;;;;;;;;;;;;;;;19.25;64.20;101443.02;2406003;72;50427;-76
2022/10/10 01:27:35;;;;;;;;;;;;;;;19.25;64.04;101436.83;2384740;73;50309;-77
2022/10/10 01:30:37;;;;;;;;;;;;;;;19.23;64.13;101434.30;2413431;73;50392;-76
2022/10/10 01:33:40;;;;;;;;;;;;;;;19.24;63.98;101427.95;2381563;74;51314;-76
2022/10/10 01:36:55;;;;;;;;;;;;;;;19.23;64.06;101438.33;2384252;74;50494;-76
2022/10/10 01:40:02;;;;;;;;;;;;;;;19.23;64.09;101425.42;2384672;74;50952;-76
2022/10/10 01:43:03;;;;;;;;;;;;;;;19.22;64.21;101427.27;2384873;74;51701;-77
2022/10/10 01:46:15;;;;;;;;;;;;;;;19.22;64.01;101420.56;2406686;73;51026;-76
2022/10/10 01:49:17;;;;;;;;;;;;;;;19.22;64.16;101419.22;2390427;73;50670;-76
2022/10/10 01:52:20;;;;;;;;;;;;;;;19.22;64.11;101415.20;2427748;73;51557;-76
2022/10/10 01:55:29;;;;;;;;;;;;;;;19.21;64.18;101409.48;2426174;73;51616;-76
2022/10/10 01:58:33;;;;;;;;;;;;;;;19.20;64.04;101406.47;2395883;73;52654;-77
2022/10/10 02:01:45;;;;;;;;;;;;;;;19.20;64.22;101412.34;2427603;73;51500;-76
2022/10/10 02:04:55;;;;;;;;;;;;;;;19.20;64.25;101410.50;2427474;73;51617;-77
2022/10/10 02:07:57;;;;;;;;;;;;;;;19.20;64.37;101405.12;2427730;73;51415;-76
2022/10/10 02:11:00;;;;;;;;;;;;;;;19.17;64.42;101393.41;2424270;73;51370;-76
2022/10/10 02:14:02;;;;;;;;;;;;;;;19.20;64.42;101390.38;2395933;73;51521;-77
2022/10/10 02:17:04;;;;;;;;;;;;;;;19.21;64.37;101398.75;2427659;73;50688;-76
2022/10/10 02:20:06;;;;;;;;;;;;;;;19.20;64.29;101393.06;2390425;73;50707;-74
2022/10/10 02:23:07;;;;;;;;;;;;;;;19.20;64.36;101391.72;2438028;72;49563;-77
2022/10/10 02:26:10;;;;;;;;;;;;;;;19.14;63.91;101387.04;2427413;73;50728;-77
2022/10/10 02:29:13;;;;;;;;;;;;;;;19.12;63.37;101379.66;2427559;72;50494;-77
2022/10/10 02:32:16;;;;;;;;;;;;;;;19.11;63.46;101380.64;2424543;73;50459;-77
2022/10/10 02:35:19;;;;;;;;;;;;;;;19.11;63.52;101370.78;2408428;73;49729;-77
2022/10/10 02:38:20;;;;;;;;;;;;;;;19.10;63.27;101363.72;2427634;73;51550;-78
2022/10/10 02:41:22;;;;;;;;;;;;;;;19.12;63.40;101363.56;2427621;73;52331;-77
2022/10/10 02:44:23;;;;;;;;;;;;;;;19.12;63.38;101367.58;2427361;73;50369;-77
2022/10/10 02:47:25;;;;;;;;;;;;;;;19.10;63.49;101365.06;2431249;72;51289;-78
2022/10/10 02:50:27;;;;;;;;;;;;;;;19.08;63.27;101358.19;2396268;73;50267;-77
2022/10/10 02:53:28;;;;;;;;;;;;;;;19.10;63.74;101353.50;2427626;73;50386;-77
2022/10/10 02:56:30;;;;;;;;;;;;;;;19.09;63.54;101355.34;2427785;73;50373;-77
2022/10/10 02:59:31;;;;;;;;;;;;;;;19.11;63.85;101347.11;2368499;73;50095;-77
2022/10/10 03:02:33;;;;;;;;;;;;;;;19.08;63.63;101342.09;2396020;73;50713;-77
2022/10/10 03:05:34;;;;;;;;;;;;;;;19.10;63.37;101333.38;2427548;73;51546;-77
2022/10/10 03:08:39;;;;;;;;;;;;;;;19.09;63.58;101327.69;2396259;73;51491;-77
2022/10/10 03:11:41;;;;;;;;;;;;;;;19.08;63.51;101326.83;2424244;73;50934;-76
2022/10/10 03:14:42;;;;;;;;;;;;;;;19.08;63.22;101319.30;2395608;73;51521;-76
2022/10/10 03:17:44;;;;;;;;;;;;;;;19.10;63.21;101315.95;2427743;73;51553;-77
2022/10/10 03:20:46;;;;;;;;;;;;;;;19.09;63.74;101315.63;2390377;73;51471;-77
2022/10/10 03:23:47;;;;;;;;;;;;;;;19.10;63.46;101309.23;2437907;72;51029;-77
2022/10/10 03:26:49;;;;;;;;;;;;;;;19.08;63.08;101304.54;2427696;73;51537;-77
2022/10/10 03:29:51;;;;;;;;;;;;;;;19.05;62.95;101301.69;2427734;73;51545;-77
2022/10/10 03:32:52;;;;;;;;;;;;;;;19.07;62.86;101298.86;2427631;73;51516;-77
2022/10/10 03:35:54;;;;;;;;;;;;;;;19.06;62.93;101302.52;2362881;73;49569;-77
2022/10/10 03:38:55;;;;;;;;;;;;;;;19.06;63.17;101295.34;2427778;73;50381;-77
2022/10/10 03:41:57;;;;;;;;;;;;;;;19.05;62.92;101291.48;2427811;73;50720;-76
2022/10/10 03:44:58;;;;;;;;;;;;;;;19.06;63.16;101285.09;2390458;73;53675;-77
2022/10/10 03:48:00;;;;;;;;;;;;;;;19.05;62.91;101283.43;2368274;73;52659;-76
2022/10/10 03:51:02;;;;;;;;;;;;;;;19.04;62.56;101279.91;2390548;73;51441;-76
2022/10/10 03:54:03;;;;;;;;;;;;;;;19.04;62.62;101281.77;2427614;73;51519;-75
2022/10/10 03:57:05;;;;;;;;;;;;;;;19.05;62.91;101274.04;2427702;73;50694;-76
2022/10/10 04:00:07;;;;;;;;;;;;;;;19.04;62.69;101273.72;2363555;73;52751;-77
2022/10/10 04:03:08;;;;;;;;;;;;;;;19.06;62.92;101270.34;2427680;73;50402;-77
2022/10/10 04:06:10;;;;;;;;;;;;;;;19.05;62.55;101265.99;2390265;73;52094;-77
2022/10/10 04:09:12;;;;;;;;;;;;;;;19.07;62.99;101261.30;2427782;73;50253;-77
2022/10/10 04:12:13;;;;;;;;;;;;;;;19.08;62.90;101254.41;2427855;73;50707;-77
2022/10/10 04:15:15;;;;;;;;;;;;;;;19.05;62.51;101248.05;2437959;72;50936;-77
2022/10/10 04:18:16;;;;;;;;;;;;;;;19.05;62.67;101251.24;2382501;73;51617;-76
2022/10/10 04:21:18;;;;;;;;;;;;;;;19.05;62.82;101248.56;2427948;73;50704;-76
2022/10/10 04:24:19;;;;;;;;;;;;;;;19.03;62.47;101235.81;2396444;73;51434;-77
2022/10/10 04:27:21;;;;;;;;;;;;;;;19.03;62.90;101231.80;2428195;73;50917;-76
2022/10/10 04:30:23;;;;;;;;;;;;;;;19.02;62.60;101226.11;2427911;73;51904;-76
2022/10/10 04:33:24;;;;;;;;;;;;;;;19.03;62.61;101218.39;2395756;73;50822;-77
2022/10/10 04:36:26;;;;;;;;;;;;;;;19.02;62.63;101208.68;2390597;73;50345;-76
2022/10/10 04:39:27;;;;;;;;;;;;;;;19.02;62.68;101206.00;2404295;73;49590;-80
2022/10/10 04:42:29;;;;;;;;;;;;;;;19.00;62.34;101206.67;2392564;73;50846;-75
2022/10/10 04:45:30;;;;;;;;;;;;;;;19.01;62.77;101199.80;2396044;73;51754;-74
2022/10/10 04:48:32;;;;;;;;;;;;;;;19.05;63.00;101199.77;2390317;73;51474;-74
2022/10/10 04:51:34;;;;;;;;;;;;;;;19.03;63.00;101192.39;2425063;73;50957;-74
2022/10/10 04:54:35;;;;;;;;;;;;;;;19.07;63.07;101190.23;2399302;73;52472;-74
2022/10/10 04:57:37;;;;;;;;;;;;;;;19.05;63.43;101186.88;2428676;73;50797;-74
2022/10/10 05:00:38;;;;;;;;;;;;;;;19.08;63.44;101188.69;2427705;73;50395;-74
2022/10/10 05:03:40;;;;;;;;;;;;;;;19.06;63.50;101181.83;2396064;73;51440;-74
2022/10/10 05:06:41;;;;;;;;;;;;;;;19.00;63.97;101176.66;2396194;73;50393;-77
2022/10/10 05:09:43;;;;;;;;;;;;;;;19.02;63.49;101171.13;2427791;73;50375;-78
2022/10/10 05:12:45;;;;;;;;;;;;;;;19.05;63.20;101163.56;2427523;73;50406;-78
2022/10/10 05:15:48;;;;;;;;;;;;;;;19.04;62.80;101159.73;2367852;73;51252;-77
2022/10/10 05:18:50;;;;;;;;;;;;;;;19.00;63.02;101150.34;2427585;73;50275;-78
2022/10/10 05:21:51;;;;;;;;;;;;;;;18.99;62.71;101145.50;2396008;73;51648;-77
2022/10/10 05:24:53;;;;;;;;;;;;;;;19.00;63.33;101141.79;2427608;73;50367;-77
2022/10/10 05:27:55;;;;;;;;;;;;;;;19.00;63.04;101135.59;2368418;73;49544;-77
2022/10/10 05:30:56;;;;;;;;;;;;;;;18.98;62.82;101145.14;2427644;73;50738;-78
2022/10/10 05:33:58;;;;;;;;;;;;;;;19.01;62.97;101137.26;2395738;73;50622;-77
2022/10/10 05:36:59;;;;;;;;;;;;;;;18.99;62.76;101143.33;2395978;73;50957;-77
2022/10/10 05:40:01;;;;;;;;;;;;;;;18.96;63.12;101136.46;2427784;73;51604;-76
2022/10/10 05:43:02;;;;;;;;;;;;;;;18.95;63.78;101132.60;2427502;73;51539;-75
2022/10/10 05:46:04;;;;;;;;;;;;;;;18.95;63.51;101130.75;2427877;73;51547;-76
2022/10/10 05:49:06;;;;;;;;;;;;;;;18.93;63.54;101124.23;2397443;73;50655;-76
2022/10/10 05:52:07;;;;;;;;;;;;;;;18.95;63.41;101127.23;2327938;74;54275;-77
2022/10/10 05:55:09;;;;;;;;;;;;;;;18.95;62.88;101124.55;2378873;73;51547;-78
2022/10/10 05:58:12;;;;;;;;;;;;;;;18.94;62.84;101127.75;2416558;73;51501;-78
2022/10/10 06:01:13;;;;;;;;;;;;;;;18.92;62.53;101117.19;2427588;73;50684;-78
2022/10/10 06:04:15;;;;;;;;;;;;;;;18.93;62.54;101114.85;2436819;72;49601;-79
2022/10/10 06:07:17;;;;;;;;;;;;;;;18.98;62.61;101122.35;2427490;73;50196;-78
2022/10/10 06:10:18;;;;;;;;;;;;;;;19.00;62.60;101124.87;2427576;73;50704;-78
2022/10/10 06:13:20;;;;;;;;;;;;;;;18.99;62.66;101127.23;2427240;73;50384;-78
2022/10/10 06:16:22;;;;;;;;;;;;;;;18.99;62.55;101126.72;2437979;72;50103;-78
2022/10/10 06:19:23;;;;;;;;;;;;;;;18.99;62.53;101115.17;2427599;72;50361;-78
2022/10/10 06:22:26;;;;;;;;;;;;;;;19.01;62.49;101111.78;2427612;73;50389;-77
2022/10/10 06:25:27;;;;;;;;;;;;;;;18.98;62.22;101116.16;2427310;73;51484;-77
2022/10/10 06:28:29;;;;;;;;;;;;;;;18.99;62.37;101115.17;2434750;73;52443;-78
2022/10/10 06:31:31;;;;;;;;;;;;;;;18.98;62.29;101121.01;2390556;73;51486;-78
2022/10/10 06:34:32;;;;;;;;;;;;;;;18.96;62.07;101124.39;2390176;73;52404;-78
2022/10/10 06:37:34;;;;;;;;;;;;;;;18.98;62.22;101132.25;2391012;73;50351;-77
2022/10/10 06:40:35;;;;;;;;;;;;;;;18.98;62.19;101121.01;2364097;73;51363;-78
2022/10/10 06:43:37;;;;;;;;;;;;;;;19.01;62.06;101126.53;2427476;73;50170;-78
2022/10/10 06:46:39;;;;;;;;;;;;;;;19.02;61.88;101128.22;2390369;73;50712;-78
2022/10/10 06:49:40;;;;;;;;;;;;;;;19.00;61.77;101132.92;2427946;73;51553;-78
2022/10/10 06:52:42;;;;;;;;;;;;;;;19.00;62.08;101126.21;2427528;72;50723;-77
2022/10/10 06:55:46;;;;;;;;;;;;;;;19.01;62.27;101123.84;2427234;73;51484;-78
2022/10/10 06:58:48;;;;;;;;;;;;;;;18.98;62.46;101125.03;2356422;73;50228;-78
2022/10/10 07:01:49;;;;;;;;;;;;;;;19.00;62.53;101116.83;2384891;74;50208;-78
2022/10/10 07:04:51;;;;;;;;;;;;;;;19.04;62.50;101113.62;2327890;74;51541;-78
2022/10/10 07:07:52;;;;;;;;;;;;;;;19.06;62.51;101117.45;2354577;74;50427;-76
2022/10/10 07:10:54;;;;;;;;;;;;;;;19.04;62.50;101112.80;2354609;74;50725;-75
2022/10/10 07:13:56;;;;;;;;;;;;;;;19.04;62.25;101119.50;2384618;74;50283;-75
2022/10/10 07:16:57;;;;;;;;;;;;;;;19.03;62.50;101112.45;2327633;74;49574;-75
2022/10/10 07:19:59;;;;;;;;;;;;;;;19.04;62.48;101102.06;2354718;74;50624;-76
2022/10/10 07:23:00;;;;;;;;;;;;;;;19.04;62.38;101097.53;2394637;73;51479;-75
2022/10/10 07:26:06;;;;;;;;;;;;;;;19.04;62.36;101096.70;2416901;73;51587;-75
2022/10/10 07:29:08;;;;;;;;;;;;;;;19.00;62.24;101098.05;2423968;73;51402;-76
2022/10/10 07:32:10;;;;;;;;;;;;;;;18.99;62.21;101100.41;2427444;73;50729;-76
2022/10/10 07:35:11;;;;;;;;;;;;;;;18.95;62.12;101105.27;2427233;73;51501;-76
2022/10/10 07:38:13;;;;;;;;;;;;;;;18.93;62.00;101105.47;2427532;73;51505;-75
2022/10/10 07:41:14;;;;;;;;;;;;;;;18.92;62.11;101109.14;2423968;73;51260;-75
2022/10/10 07:44:16;;;;;;;;;;;;;;;18.96;62.07;101104.77;2395562;73;50386;-76
2022/10/10 07:47:18;;;;;;;;;;;;;;;18.98;62.06;101102.23;2427509;73;50330;-75
2022/10/10 07:50:19;;;;;;;;;;;;;;;18.98;62.16;101108.11;2427589;73;50645;-75
2022/10/10 07:53:21;;;;;;;;;;;;;;;19.01;61.87;101098.37;2423574;73;52597;-75
2022/10/10 07:56:22;;;;;;;;;;;;;;;19.01;61.80;101099.71;2410173;73;51542;-75
2022/10/10 07:59:24;;;;;;;;;;;;;;;19.01;61.81;101098.37;2344918;75;51479;-75
2022/10/10 08:02:25;;;;;;;;;;;;;;;18.97;61.67;101097.06;2341733;75;51457;-76
2022/10/10 08:05:27;;;;;;;;;;;;;;;19.00;61.69;101100.73;2359046;73;52397;-75
2022/10/10 08:08:29;;;;;;;;;;;;;;;19.02;61.76;101093.36;2427740;73;52376;-75
2022/10/10 08:11:30;;;;;;;;;;;;;;;19.01;61.82;101097.03;2427873;73;51727;-75
2022/10/10 08:14:32;;;;;;;;;;;;;;;18.98;61.74;101089.34;2427571;73;51617;-76
2022/10/10 08:17:34;;;;;;;;;;;;;;;18.92;62.21;101093.05;2368343;73;52688;-75
2022/10/10 08:20:35;;;;;;;;;;;;;;;18.90;62.60;101089.70;2427616;73;50384;-74
2022/10/10 08:23:37;;;;;;;;;;;;;;;18.91;62.33;101080.66;2427709;73;50446;-75
2022/10/10 08:26:38;;;;;;;;;;;;;;;18.91;62.64;101079.84;2417739;73;50347;-74
2022/10/10 08:29:40;;;;;;;;;;;;;;;18.94;62.57;101080.82;2327950;74;50083;-75
2022/10/10 08:32:42;;;;;;;;;;;;;;;18.92;62.39;101086.34;2354703;74;51524;-75
2022/10/10 08:35:43;;;;;;;;;;;;;;;18.91;62.56;101079.33;2354602;74;50715;-74
2022/10/10 08:38:46;;;;;;;;;;;;;;;18.91;62.65;101076.64;2354547;74;51875;-75
2022/10/10 08:41:57;;;;;;;;;;;;;;;18.90;62.64;101074.95;2381961;74;49514;-75
2022/10/10 08:45:01;;;;;;;;;;;;;;;18.88;62.69;101075.66;2384898;74;50439;-75
2022/10/10 08:48:04;;;;;;;;;;;;;;;18.90;62.73;101074.95;2385041;74;51610;-75
2022/10/10 08:51:06;;;;;;;;;;;;;;;18.91;62.73;101071.28;2416677;73;50419;-75
2022/10/10 08:54:08;;;;;;;;;;;;;;;18.97;62.49;101070.25;2423883;73;51047;-76
2022/10/10 08:57:14;;;;;;;;;;;;;;;18.99;62.26;101071.75;2427467;73;51477;-75
2022/10/10 09:00:17;;;;;;;;;;;;;;;18.99;62.18;101067.72;2412354;73;50630;-75
2022/10/10 09:03:23;;;;;;;;;;;;;;;18.98;62.03;101065.20;2407968;73;51544;-76
2022/10/10 09:06:29;;;;;;;;;;;;;;;19.00;62.05;101065.87;2354470;74;51909;-75
2022/10/10 09:09:41;;;;;;;;;;;;;;;19.00;62.02;101063.19;2384898;74;50374;-75
2022/10/10 09:12:48;;;;;;;;;;;;;;;18.98;62.08;101054.48;2416331;73;50366;-76
2022/10/10 09:15:51;;;;;;;;;;;;;;;19.00;61.89;101055.14;2427361;73;51526;-75
2022/10/10 09:18:54;;;;;;;;;;;;;;;19.00;62.05;101052.46;2394714;73;52508;-76
2022/10/10 09:21:56;;;;;;;;;;;;;;;18.93;62.31;101047.81;2427506;73;50455;-75
2022/10/10 09:25:00;;;;;;;;;;;;;;;18.92;62.37;101044.78;2427238;73;51694;-75
2022/10/10 09:28:03;;;;;;;;;;;;;;;18.89;62.52;101048.33;2426963;73;51526;-75
2022/10/10 09:31:12;;;;;;;;;;;;;;;18.85;62.64;101037.11;2436098;72;49582;-75
2022/10/10 09:34:16;;;;;;;;;;;;;;;18.88;62.61;101033.23;2427433;73;53027;-75
2022/10/10 09:37:18;;;;;;;;;;;;;;;18.87;62.60;101033.75;2426436;73;50421;-75
2022/10/10 09:40:30;;;;;;;;;;;;;;;18.89;62.59;101031.73;2423735;73;51559;-75
2022/10/10 09:43:32;;;;;;;;;;;;;;;18.97;62.29;101024.16;2437823;72;50137;-75
2022/10/10 09:46:33;;;;;;;;;;;;;;;18.97;62.10;101034.88;2390447;73;50034;-76
2022/10/10 09:49:35;;;;;;;;;;;;;;;18.99;62.17;101021.30;2427681;73;50312;-75
2022/10/10 09:52:36;;;;;;;;;;;;;;;18.98;62.51;101018.27;2427611;73;50653;-75
2022/10/10 09:55:38;;;;;;;;;;;;;;;19.04;62.25;101018.93;2368446;73;52670;-76
2022/10/10 09:58:40;;;;;;;;;;;;;;;19.03;62.10;101007.85;2427615;73;51656;-75
2022/10/10 10:01:42;;;;;;;;;;;;;;;18.93;62.19;101007.59;2427613;73;49943;-75
2022/10/10 10:04:43;;;;;;;;;;;;;;;18.97;62.11;101007.23;2427501;73;50743;-75
2022/10/10 10:07:48;;;;;;;;;;;;;;;18.91;62.20;101014.14;2424486;73;49578;-75
2022/10/10 10:10:50;;;;;;;;;;;;;;;18.84;62.45;101014.51;2427924;73;50347;-75
2022/10/10 10:13:53;;;;;;;;;;;;;;;18.84;62.38;101014.51;2390478;73;50381;-74
2022/10/10 10:16:55;;;;;;;;;;;;;;;18.86;62.33;101020.53;2427137;73;50397;-75
2022/10/10 10:19:56;;;;;;;;;;;;;;;18.88;62.04;101019.34;2437992;72;49301;-74
2022/10/10 10:22:58;;;;;;;;;;;;;;;18.92;62.04;101020.65;2427745;73;50263;-75
2022/10/10 10:26:01;;;;;;;;;;;;;;;18.95;62.06;101017.30;2427405;73;50044;-75
2022/10/10 10:29:03;;;;;;;;;;;;;;;19.01;62.04;101015.23;2413834;73;50384;-74
2022/10/10 10:32:06;;;;;;;;;;;;;;;19.02;61.94;101021.77;2340869;73;52218;-74
2022/10/10 10:35:26;;;;;;;;;;;;;;;19.03;61.84;101019.92;2427642;73;50802;-75
2022/10/10 10:38:32;;;;;;;;;;;;;;;19.03;61.83;101009.20;2427747;73;50391;-74
2022/10/10 10:41:52;;;;;;;;;;;;;;;19.04;61.86;101013.56;2426027;73;51470;-75
2022/10/10 10:44:55;;;;;;;;;;;;;;;19.01;61.81;101001.34;2424188;73;50133;-75
2022/10/10 10:47:58;;;;;;;;;;;;;;;19.01;61.83;100995.12;2427490;73;50370;-76
2022/10/10 10:51:01;;;;;;;;;;;;;;;19.00;61.84;100978.71;2428201;73;50304;-75
2022/10/10 10:54:17;;;;;;;;;;;;;;;18.99;61.81;100979.73;2427832;73;50408;-75
2022/10/10 10:57:20;;;;;;;;;;;;;;;18.99;61.76;100981.91;2427688;72;51659;-75
2022/10/10 11:00:22;;;;;;;;;;;;;;;18.99;61.78;100977.05;2427131;73;51640;-75
2022/10/10 11:03:25;;;;;;;;;;;;;;;18.98;61.79;100980.73;2427784;73;50706;-74
2022/10/10 11:06:28;;;;;;;;;;;;;;;18.98;61.78;100975.37;2426770;72;50799;-73
2022/10/10 11:09:37;;;;;;;;;;;;;;;18.99;61.78;100967.67;2396457;73;50175;-74
2022/10/10 11:12:41;;;;;;;;;;;;;;;19.00;61.57;100966.64;2427700;73;52838;-74
2022/10/10 11:15:43;;;;;;;;;;;;;;;18.99;61.68;100963.13;2384378;73;51592;-75
2022/10/10 11:18:46;;;;;;;;;;;;;;;19.01;61.54;100954.89;2383137;74;50476;-75
2022/10/10 11:21:56;;;;;;;;;;;;;;;19.01;61.58;100950.39;2363210;74;51452;-75
2022/10/10 11:25:01;;;;;;;;;;;;;;;19.02;61.68;100959.27;2398549;73;50427;-75
2022/10/10 11:28:17;;;;;;;;;;;;;;;18.99;61.63;100952.41;2417066;73;51474;-75
2022/10/10 11:31:23;;;;;;;;;;;;;;;19.01;61.58;100954.41;2428067;73;50321;-75
2022/10/10 11:34:27;;;;;;;;;;;;;;;18.98;61.43;100950.72;2395559;73;51287;-74
2022/10/10 11:37:29;;;;;;;;;;;;;;;18.99;61.45;100946.22;2427640;73;51626;-75
2022/10/10 11:40:42;;;;;;;;;;;;;;;18.98;61.36;100943.19;2416166;73;51526;-75
2022/10/10 11:43:45;;;;;;;;;;;;;;;18.97;61.40;100945.55;2421273;73;50342;-74
2022/10/10 11:46:48;;;;;;;;;;;;;;;18.93;61.38;100949.94;2424102;73;51021;-74
2022/10/10 11:49:54;;;;;;;;;;;;;;;18.93;61.34;100940.55;2427348;72;51572;-74
2022/10/10 11:53:09;;;;;;;;;;;;;;;18.95;61.33;100942.21;2425652;73;51596;-75
2022/10/10 11:56:21;;;;;;;;;;;;;;;18.90;61.27;100942.23;2424171;73;51411;-75
2022/10/10 11:59:24;;;;;;;;;;;;;;;18.90;61.30;100930.67;2385620;73;52822;-75
2022/10/10 12:02:32;;;;;;;;;;;;;;;18.88;61.32;100922.83;2425793;73;50394;-75
2022/10/10 12:05:37;;;;;;;;;;;;;;;18.86;61.40;100922.16;2424567;73;51533;-75
2022/10/10 12:08:39;;;;;;;;;;;;;;;18.87;61.44;100915.77;2402940;73;22527;-75
2022/10/10 12:11:42;;;;;;;;;;;;;;;18.88;61.41;100914.78;2420666;73;50403;-75
2022/10/10 12:14:44;;;;;;;;;;;;;;;18.88;61.42;100917.95;2425099;73;50794;-75
2022/10/10 12:17:45;;;;;;;;;;;;;;;18.86;61.52;100902.56;2427446;73;50516;-75
2022/10/10 12:20:47;;;;;;;;;;;;;;;18.88;61.50;100903.20;2427598;73;51545;-74
2022/10/10 12:23:49;;;;;;;;;;;;;;;18.91;61.41;100905.03;2427170;73;51398;-75
2022/10/10 12:26:55;;;;;;;;;;;;;;;18.90;61.42;100894.47;2412945;73;51480;-75
2022/10/10 12:29:59;;;;;;;;;;;;;;;18.90;61.37;100895.81;2338358;76;50862;-75
2022/10/10 12:33:00;;;;;;;;;;;;;;;18.90;61.40;100893.13;2337385;75;51661;-75
2022/10/10 12:36:22;;;;;;;;;;;;;;;18.92;61.38;100901.33;2372127;74;50805;-76
2022/10/10 12:39:31;;;;;;;;;;;;;;;18.91;61.50;100908.23;2379166;75;51557;-74
2022/10/10 12:42:33;;;;;;;;;;;;;;;18.89;61.55;100905.71;2396060;73;51481;-75
2022/10/10 12:45:36;;;;;;;;;;;;;;;18.92;61.52;100897.30;2391127;74;50800;-75
2022/10/10 12:48:38;;;;;;;;;;;;;;;18.92;61.50;100898.64;2366718;75;53090;-74
2022/10/10 12:51:39;;;;;;;;;;;;;;;18.98;61.40;100909.16;2379017;75;51429;-75
2022/10/10 12:54:41;;;;;;;;;;;;;;;18.98;61.38;100895.75;2380279;75;52525;-75
2022/10/10 12:57:43;;;;;;;;;;;;;;;19.01;61.36;100897.23;2382389;75;50806;-75
2022/10/10 13:00:45;;;;;;;;;;;;;;;19.02;61.35;100892.22;2355519;75;51108;-77
2022/10/10 13:03:47;;;;;;;;;;;;;;;19.04;61.31;100898.24;2355413;75;50558;-75
2022/10/10 13:06:48;;;;;;;;;;;;;;;19.04;61.29;100892.88;2378711;74;51569;-75
2022/10/10 13:09:51;;;;;;;;;;;;;;;19.07;61.24;100879.93;2354975;75;51026;-74
2022/10/10 13:13:03;;;;;;;;;;;;;;;19.10;61.19;100893.48;2346152;75;49405;-75
2022/10/10 13:16:06;;;;;;;;;;;;;;;19.05;61.47;100887.31;2378422;75;50369;-74
2022/10/10 13:19:09;;;;;;;;;;;;;;;19.02;61.49;100877.47;2378680;75;51655;-75
2022/10/10 13:22:10;;;;;;;;;;;;;;;19.06;61.38;100873.39;2395957;74;51631;-74
2022/10/10 13:25:12;;;;;;;;;;;;;;;19.02;61.45;100876.12;2374841;74;50999;-74
2022/10/10 13:28:17;;;;;;;;;;;;;;;19.00;61.53;100878.15;2406418;74;51568;-75
2022/10/10 13:31:19;;;;;;;;;;;;;;;19.02;61.45;100869.42;2406411;74;50402;-74
2022/10/10 13:34:22;;;;;;;;;;;;;;;19.05;61.35;100875.77;2406179;74;50719;-74
2022/10/10 13:37:24;;;;;;;;;;;;;;;19.08;61.25;100872.71;2353784;74;52569;-74
2022/10/10 13:40:26;;;;;;;;;;;;;;;19.06;61.23;100868.03;2378824;73;51538;-75
2022/10/10 13:43:27;;;;;;;;;;;;;;;19.04;61.29;100868.74;2368535;74;50704;-74
2022/10/10 13:46:29;;;;;;;;;;;;;;;19.03;61.31;100869.22;2378544;75;51460;-74
2022/10/10 13:49:31;;;;;;;;;;;;;;;18.97;61.38;100857.06;2340838;73;49279;-75
2022/10/10 13:52:32;;;;;;;;;;;;;;;18.94;61.45;100862.28;2398004;74;50641;-75
2022/10/10 13:55:34;;;;;;;;;;;;;;;18.90;61.52;100864.47;2377108;73;50778;-75
2022/10/10 13:58:40;;;;;;;;;;;;;;;18.91;61.45;100859.45;2396975;73;50724;-74
2022/10/10 14:01:47;;;;;;;;;;;;;;;18.94;61.45;100855.58;2365632;74;49667;-74
2022/10/10 14:04:52;;;;;;;;;;;;;;;19.00;61.32;100844.11;2389080;74;51463;-74
2022/10/10 14:07:53;;;;;;;;;;;;;;;19.04;61.24;100851.31;2390903;74;50690;-74
2022/10/10 14:10:56;;;;;;;;;;;;;;;19.07;61.16;100845.58;2390695;74;51527;-74
2022/10/10 14:14:08;;;;;;;;;;;;;;;19.08;61.09;100841.88;2372057;74;51152;-74
2022/10/10 14:17:10;;;;;;;;;;;;;;;19.08;61.07;100838.67;2372423;74;50785;-74
2022/10/10 14:20:12;;;;;;;;;;;;;;;19.07;61.17;100841.05;2390694;74;51573;-74
2022/10/10 14:23:13;;;;;;;;;;;;;;;19.08;61.18;100842.70;2372414;74;50801;-75
2022/10/10 14:26:16;;;;;;;;;;;;;;;19.06;61.23;100835.84;2372112;74;50236;-74
2022/10/10 14:29:17;;;;;;;;;;;;;;;19.06;61.25;100842.55;2382397;74;50403;-75
2022/10/10 14:32:19;;;;;;;;;;;;;;;19.07;61.27;100834.34;2387329;74;51518;-74
2022/10/10 14:35:20;;;;;;;;;;;;;;;19.06;61.30;100833.16;2384378;74;50410;-74
2022/10/10 14:38:22;;;;;;;;;;;;;;;19.05;61.34;100828.83;2351214;74;51052;-74
2022/10/10 14:41:23;;;;;;;;;;;;;;;19.03;61.40;100829.00;2351447;74;50504;-75
2022/10/10 14:44:25;;;;;;;;;;;;;;;19.03;61.43;100826.83;2384339;74;50805;-75
2022/10/10 14:47:27;;;;;;;;;;;;;;;19.02;61.50;100821.98;2384524;74;50181;-74
2022/10/10 14:50:30;;;;;;;;;;;;;;;19.04;61.55;100827.17;2325233;74;51756;-74
2022/10/10 14:53:31;;;;;;;;;;;;;;;19.03;61.54;100814.77;2383218;74;50764;-74
2022/10/10 14:56:33;;;;;;;;;;;;;;;19.03;61.51;100818.78;2362253;74;51490;-75
2022/10/10 14:59:35;;;;;;;;;;;;;;;19.02;61.52;100817.95;2397796;74;51464;-75
2022/10/10 15:02:36;;;;;;;;;;;;;;;19.04;61.44;100812.42;2349703;74;50897;-75
2022/10/10 15:05:38;;;;;;;;;;;;;;;19.03;61.45;100810.73;2376999;74;51488;-74
2022/10/10 15:08:39;;;;;;;;;;;;;;;19.04;61.33;100811.08;2397811;74;51542;-74
2022/10/10 15:11:41;;;;;;;;;;;;;;;19.05;61.31;100814.08;2376936;74;53675;-75
2022/10/10 15:14:42;;;;;;;;;;;;;;;19.05;61.29;100823.47;2349086;74;51274;-74
2022/10/10 15:17:44;;;;;;;;;;;;;;;19.03;61.33;100822.80;2397698;73;50393;-74
2022/10/10 15:20:46;;;;;;;;;;;;;;;18.98;61.32;100814.47;2377235;74;50117;-75
2022/10/10 15:23:47;;;;;;;;;;;;;;;18.98;61.34;100815.81;2399733;73;50748;-74
2022/10/10 15:26:49;;;;;;;;;;;;;;;18.96;61.37;100820.52;2394585;73;50410;-74
2022/10/10 15:29:50;;;;;;;;;;;;;;;18.91;61.40;100815.72;2376975;74;50714;-75
2022/10/10 15:32:52;;;;;;;;;;;;;;;18.89;61.57;100826.61;2376977;74;50659;-74
2022/10/10 15:35:58;;;;;;;;;;;;;;;18.89;61.47;100824.45;2376883;74;51421;-75
2022/10/10 15:38:59;;;;;;;;;;;;;;;18.84;61.58;100825.50;2397774;74;50011;-74